Time;durP1;ratioP1;P1;durP2;ratioP2;P2;SDS_P1;SDS_P2;PMS_P1;PMS_P2;Temp;Humidity;BMP_temperature;BMP_pressure;BME280_temperature;BME280_humidity;BME280_pressure;Samples;Min_cycle;Max_cycle;Signal;HPM_P1;HPM_P2
2022/05/12 00:00:35;;;;;;;10.95;5.28;;;;;;;9.36;100.00;100985.19;1714062;82;21922;-83
2022/05/12 00:07:28;;;;;;;;;;;;;;;9.32;100.00;100996.25;1716880;82;21082;-83
2022/05/12 00:14:59;;;;;;;11.60;5.42;;;;;;;9.25;100.00;100998.87;1714376;83;21094;-83
2022/05/12 00:17:56;;;;;;;12.90;6.22;;;;;;;9.16;100.00;101001.56;1714254;82;21522;-83
2022/05/12 00:25:16;;;;;;;9.95;6.17;;;;;;;9.06;100.00;100998.72;1714357;82;21086;-83
2022/05/12 00:32:07;;;;;;;14.93;5.80;;;;;;;9.00;100.00;100997.81;1714440;82;21031;-83
2022/05/12 00:46:08;;;;;;;14.00;6.45;;;;;;;8.89;100.00;100995.03;1714133;82;21067;-83
2022/05/12 00:52:51;;;;;;;11.30;6.10;;;;;;;8.76;100.00;100986.72;1714138;83;20999;-82
2022/05/12 00:59:43;;;;;;;9.08;5.47;;;;;;;8.59;100.00;100990.80;1714263;82;21152;-82
2022/05/12 01:06:38;;;;;;;8.98;5.10;;;;;;;8.41;100.00;100989.66;1714346;83;21043;-81
2022/05/12 01:09:08;;;;;;;10.82;5.92;;;;;;;8.37;100.00;100990.78;1714404;82;21762;-83
2022/05/12 01:12:05;;;;;;;11.10;5.87;;;;;;;8.37;100.00;100989.48;1714568;82;21034;-82
2022/05/12 01:14:35;;;;;;;8.43;5.70;;;;;;;8.34;100.00;100988.36;1714385;83;21085;-81
2022/05/12 01:24:46;;;;;;;9.78;5.50;;;;;;;8.22;100.00;100997.70;1714298;81;21576;-81
2022/05/12 01:30:40;;;;;;;10.38;6.22;;;;;;;8.17;100.00;101002.34;1717006;82;21559;-82
2022/05/12 01:37:56;;;;;;;9.98;5.55;;;;;;;7.92;100.00;101001.62;1717600;83;20983;-84
2022/05/12 01:44:53;;;;;;;10.53;5.20;;;;;;;7.33;100.00;101003.63;1716606;83;21090;-83
2022/05/12 01:48:07;;;;;;;10.75;5.10;;;;;;;7.18;100.00;101000.12;1718962;82;20943;-82
2022/05/12 01:51:06;;;;;;;6.75;4.33;;;;;;;7.16;100.00;101004.55;1718882;82;21038;-82
2022/05/12 01:54:03;;;;;;;8.20;5.03;;;;;;;7.11;100.00;101003.49;1718950;82;21050;-82
2022/05/12 01:56:30;;;;;;;9.53;5.22;;;;;;;7.04;100.00;101002.16;1718834;82;21893;-82
2022/05/12 01:59:01;;;;;;;10.68;4.90;;;;;;;6.94;100.00;101009.59;1715317;83;21110;-83
2022/05/12 02:01:28;;;;;;;9.38;5.10;;;;;;;6.81;100.00;101002.11;1704804;83;21027;-85
2022/05/12 02:03:56;;;;;;;8.73;5.30;;;;;;;6.66;100.00;101011.52;1707211;83;21073;-85
2022/05/12 02:06:23;;;;;;;7.25;5.08;;;;;;;6.51;100.00;101013.13;1696965;82;21038;-85
2022/05/12 02:08:54;;;;;;;8.78;5.10;;;;;;;6.37;100.00;101013.39;1705796;83;21848;-81
2022/05/12 02:12:16;;;;;;;9.93;5.28;;;;;;;6.26;100.00;101014.38;1708539;83;20959;-80
2022/05/12 02:15:16;;;;;;;9.48;5.40;;;;;;;6.19;100.00;101016.46;1710058;83;21085;-85
2022/05/12 02:18:28;;;;;;;11.48;5.28;;;;;;;6.16;100.00;101012.73;1705136;83;21036;-85
2022/05/12 02:20:58;;;;;;;10.60;5.30;;;;;;;6.15;100.00;101015.78;1704431;83;21047;-86
2022/05/12 02:23:28;;;;;;;9.35;4.83;;;;;;;6.17;100.00;101018.28;1707245;83;21738;-83
2022/05/12 02:25:55;;;;;;;9.80;4.62;;;;;;;6.22;100.00;101023.23;1706618;83;21105;-83
2022/05/12 02:28:23;;;;;;;9.48;5.15;;;;;;;6.31;100.00;101019.70;1709689;82;21050;-82
2022/05/12 02:30:51;;;;;;;8.35;4.95;;;;;;;6.40;100.00;101021.02;1709568;84;21058;-83
2022/05/12 02:33:18;;;;;;;10.13;5.00;;;;;;;6.49;100.00;101018.39;1708362;82;21089;-82
2022/05/12 02:39:14;;;;;;;10.68;5.00;;;;;;;6.55;100.00;101023.25;1708399;83;21027;-84
2022/05/12 02:45:32;;;;;;;8.18;4.67;;;;;;;6.56;100.00;101026.69;1709000;82;21042;-84
2022/05/12 02:48:00;;;;;;;10.50;5.22;;;;;;;6.55;100.00;101033.59;1709804;83;21098;-86
2022/05/12 02:50:33;;;;;;;10.45;5.35;;;;;;;6.54;100.00;101025.92;1706999;84;21201;-87
2022/05/12 02:53:02;;;;;;;13.10;5.12;;;;;;;6.51;100.00;101031.24;1706567;82;21046;-84
2022/05/12 02:59:57;;;;;;;9.20;4.92;;;;;;;6.46;100.00;101030.19;1709224;82;21436;-85
2022/05/12 03:06:10;;;;;;;7.92;4.95;;;;;;;6.52;100.00;101027.31;1707459;82;21083;-83
2022/05/12 03:12:59;;;;;;;8.10;4.50;;;;;;;6.63;100.00;101030.63;1709429;84;21086;-85
2022/05/12 03:19:59;;;;;;;7.78;4.37;;;;;;;6.76;100.00;101034.23;1708515;82;21071;-86
2022/05/12 03:27:44;;;;;;;15.75;4.55;;;;;;;7.01;100.00;101042.01;1715758;80;21129;-87
2022/05/12 03:34:49;;;;;;;7.83;4.28;;;;;;;7.48;100.00;101042.95;1679142;84;21568;-86
2022/05/12 03:49:25;;;;;;;6.00;4.00;;;;;;;8.26;100.00;101043.28;1675832;85;21054;-84
2022/05/12 03:52:35;;;;;;;9.90;5.30;;;;;;;8.50;100.00;101042.34;1718745;83;21049;-83
2022/05/12 03:55:31;;;;;;;7.50;4.75;;;;;;;8.66;100.00;101042.72;1719160;82;20958;-85
2022/05/12 04:06:57;;;;;;;9.00;4.83;;;;;;;9.35;100.00;101047.19;1718745;82;21003;-83
2022/05/12 04:13:43;;;;;;;10.03;5.62;;;;;;;9.92;100.00;101046.13;1719092;82;21007;-83
2022/05/12 04:20:36;;;;;;;15.18;6.58;;;;;;;10.65;100.00;101040.86;1719088;83;21061;-84
2022/05/12 04:27:03;;;;;;;13.32;6.70;;;;;;;11.38;100.00;101040.18;1718776;82;21519;-84
2022/05/12 04:37:30;;;;;;;18.30;7.50;;;;;;;12.29;89.49;101039.60;1729735;82;21058;-86
2022/05/12 04:44:33;;;;;;;17.20;8.53;;;;;;;12.78;81.24;101038.06;1730771;82;21070;-85
2022/05/12 04:51:17;;;;;;;11.08;6.62;;;;;;;13.20;73.94;101034.83;1710118;83;21074;-84
2022/05/12 04:58:06;;;;;;;11.50;6.45;;;;;;;13.59;74.00;101047.45;1709065;84;21063;-82
2022/05/12 05:05:30;;;;;;;16.48;8.45;;;;;;;13.99;67.57;101044.18;1716418;83;21109;-85
2022/05/12 05:08:01;;;;;;;19.27;9.43;;;;;;;14.28;64.77;101050.10;1728227;82;21181;-85
2022/05/12 05:18:49;;;;;;;21.42;10.38;;;;;;;14.92;61.76;101056.89;1716011;83;21090;-85
2022/05/12 05:25:47;;;;;;;25.75;10.28;;;;;;;15.31;64.84;101056.17;1707616;83;20984;-85
2022/05/12 05:32:58;;;;;;;22.17;11.20;;;;;;;15.73;58.85;101048.52;1710657;82;22214;-82
2022/05/12 05:36:06;;;;;;;26.45;12.55;;;;;;;16.01;59.54;101052.12;1711979;83;21030;-84
2022/05/12 05:38:35;;;;;;;21.50;10.48;;;;;;;16.20;58.71;101043.87;1710996;82;21555;-83
2022/05/12 05:41:03;;;;;;;20.80;11.53;;;;;;;16.26;53.82;101041.98;1717726;82;21149;-83
2022/05/12 05:44:06;;;;;;;21.35;11.00;;;;;;;16.23;54.06;101043.58;1737808;82;22656;-84
2022/05/12 05:46:34;;;;;;;27.00;12.07;;;;;;;16.14;54.70;101051.02;1739647;82;21026;-85
2022/05/12 05:49:30;;;;;;;19.23;9.85;;;;;;;16.07;54.37;101052.88;1739878;82;21014;-85
2022/05/12 05:55:32;;;;;;;18.50;9.65;;;;;;;16.30;55.10;101044.69;1668842;85;21436;-83
2022/05/12 05:58:28;;;;;;;16.05;8.65;;;;;;;16.58;54.06;101038.16;1738399;81;20992;-83
2022/05/12 06:01:33;;;;;;;12.98;7.80;;;;;;;16.86;51.45;101034.23;1729320;82;21065;-84
2022/05/12 06:04:00;;;;;;;17.95;8.83;;;;;;;17.11;49.87;101034.52;1730323;82;22220;-88
2022/05/12 06:06:29;;;;;;;14.38;8.15;;;;;;;17.35;52.47;101027.37;1727547;80;21523;-86
2022/05/12 06:08:59;;;;;;;15.35;8.28;;;;;;;17.53;46.88;101035.77;1726034;82;21141;-83
2022/05/12 06:11:44;;;;;;;15.93;8.08;;;;;;;17.66;47.29;101035.73;1729640;81;21543;-84
2022/05/12 06:14:13;;;;;;;15.35;8.40;;;;;;;17.81;46.25;101038.63;1725180;81;21164;-84
2022/05/12 06:16:43;;;;;;;12.80;8.48;;;;;;;17.96;46.19;101029.73;1696130;82;21105;-84
2022/05/12 06:19:14;;;;;;;14.58;8.13;;;;;;;18.10;45.63;101020.45;1737669;81;21687;-84
2022/05/12 06:21:42;;;;;;;14.60;8.30;;;;;;;18.23;43.48;101017.37;1734618;81;21134;-84
2022/05/12 06:24:16;;;;;;;14.47;7.58;;;;;;;18.35;44.42;101009.20;1739678;82;21070;-84
2022/05/12 06:26:44;;;;;;;14.38;8.08;;;;;;;18.45;42.79;101006.78;1739271;82;21513;-83
2022/05/12 06:29:11;;;;;;;13.88;7.45;;;;;;;18.57;44.92;101006.00;1739372;81;21030;-84
2022/05/12 06:31:42;;;;;;;12.68;7.97;;;;;;;18.72;44.94;101015.95;1739508;82;21137;-86
2022/05/12 06:34:08;;;;;;;19.30;7.90;;;;;;;18.88;44.26;101011.23;1729998;82;21225;-85
2022/05/12 06:36:37;;;;;;;14.78;7.55;;;;;;;19.05;42.37;101012.12;1729474;83;21540;-84
2022/05/12 06:39:09;;;;;;;11.33;6.72;;;;;;;19.13;42.18;101012.14;1729490;82;21046;-84
2022/05/12 06:41:42;;;;;;;9.60;6.35;;;;;;;19.23;42.03;101009.34;1729413;82;21051;-83
2022/05/12 06:44:10;;;;;;;10.03;6.03;;;;;;;19.34;42.69;101008.23;1729528;82;20987;-84
2022/05/12 06:46:43;;;;;;;11.93;6.47;;;;;;;19.46;43.33;101008.73;1729336;83;21142;-83
2022/05/12 06:49:12;;;;;;;11.12;6.25;;;;;;;19.60;41.96;101013.83;1729135;82;21050;-85
2022/05/12 06:51:46;;;;;;;16.20;6.72;;;;;;;19.71;39.66;101014.83;1729357;82;21615;-84
2022/05/12 06:54:15;;;;;;;15.15;6.60;;;;;;;19.81;40.92;101006.24;1728917;82;21046;-83
2022/05/12 06:56:43;;;;;;;13.80;5.92;;;;;;;19.98;40.28;101006.25;1728556;82;21051;-84
2022/05/12 06:59:10;;;;;;;12.35;6.25;;;;;;;20.10;41.90;101006.22;1729664;83;21135;-86
2022/05/12 07:01:37;;;;;;;9.73;6.00;;;;;;;20.27;41.93;101002.21;1729099;82;21055;-84
2022/05/12 07:04:05;;;;;;;8.20;5.12;;;;;;;20.45;40.04;101001.50;1729278;83;21046;-84
2022/05/12 07:06:33;;;;;;;11.53;6.22;;;;;;;20.60;39.80;100997.61;1721628;83;21276;-84
2022/05/12 07:09:01;;;;;;;9.13;5.75;;;;;;;20.74;40.38;100998.74;1702800;83;21015;-83
2022/05/12 07:11:31;;;;;;;11.05;5.97;;;;;;;20.84;40.59;101002.48;1712731;82;21137;-83
2022/05/12 07:13:59;;;;;;;8.05;5.10;;;;;;;20.93;38.55;100998.80;1715900;82;21066;-84
2022/05/12 07:16:27;;;;;;;11.30;5.33;;;;;;;20.94;36.15;100993.84;1702972;83;21153;-84
2022/05/12 07:19:00;;;;;;;7.70;4.90;;;;;;;20.92;36.71;100995.02;1712965;82;21140;-88
2022/05/12 07:27:06;;;;;;;9.55;4.12;;;;;;;21.08;37.61;100992.27;1712753;82;21050;-84
2022/05/12 07:29:35;;;;;;;6.95;4.17;;;;;;;21.14;36.88;100991.23;1712806;82;21533;-84
2022/05/12 07:32:12;;;;;;;8.43;4.42;;;;;;;21.15;37.31;100993.72;1713148;82;21029;-84
2022/05/12 07:34:41;;;;;;;6.25;4.08;;;;;;;21.19;36.26;100982.28;1704673;82;21085;-84
2022/05/12 07:37:10;;;;;;;6.87;4.70;;;;;;;21.32;37.12;100981.66;1716427;82;21102;-85
2022/05/12 07:39:38;;;;;;;6.53;3.92;;;;;;;21.42;34.87;100984.41;1714672;82;21015;-84
2022/05/12 07:42:06;;;;;;;6.10;3.77;;;;;;;21.43;37.10;100976.77;1713697;82;21077;-84
2022/05/12 07:44:39;;;;;;;5.40;4.10;;;;;;;21.56;37.10;100980.13;1712972;82;21039;-86
2022/05/12 07:47:13;;;;;;;12.82;4.83;;;;;;;21.66;35.65;100981.26;1713046;82;21062;-84
2022/05/12 07:49:42;;;;;;;7.35;4.53;;;;;;;21.64;36.39;100983.26;1713092;82;21795;-84
2022/05/12 07:52:13;;;;;;;12.55;5.67;;;;;;;21.67;36.84;100980.74;1713278;82;21639;-87
2022/05/12 07:54:41;;;;;;;12.10;5.55;;;;;;;21.79;37.92;100979.32;1712931;82;21062;-84
2022/05/12 07:57:10;;;;;;;6.25;4.62;;;;;;;21.94;36.31;100979.31;1713006;82;21532;-84
2022/05/12 07:59:42;;;;;;;8.45;5.45;;;;;;;21.99;36.31;100982.75;1713205;82;21066;-85
2022/05/12 08:02:09;;;;;;;12.45;5.53;;;;;;;22.03;36.58;100976.09;1713203;82;21206;-84
2022/05/12 08:05:20;;;;;;;10.00;5.70;;;;;;;22.17;36.43;100983.70;1712684;82;21169;-83
2022/05/12 08:07:49;;;;;;;10.05;4.90;;;;;;;22.25;36.73;100976.98;1727618;82;21579;-85
2022/05/12 08:10:18;;;;;;;7.75;5.45;;;;;;;22.39;36.02;100983.32;1688220;84;21131;-85
2022/05/12 08:12:46;;;;;;;9.83;6.17;;;;;;;22.51;36.11;100980.50;1733411;82;21046;-84
2022/05/12 08:15:15;;;;;;;9.70;5.70;;;;;;;22.66;35.85;100987.12;1717634;82;21098;-86
2022/05/12 08:17:42;;;;;;;9.33;4.70;;;;;;;22.77;36.65;100977.03;1708642;83;21174;-88
2022/05/12 08:20:12;;;;;;;9.08;4.30;;;;;;;22.87;34.75;100984.20;1726636;82;21061;-90
2022/05/12 08:22:41;;;;;;;8.48;5.40;;;;;;;22.98;35.21;100983.69;1701692;82;21078;-84
2022/05/12 08:25:10;;;;;;;8.55;5.20;;;;;;;23.08;34.59;100988.67;1734579;82;21048;-84
2022/05/12 08:27:38;;;;;;;8.33;4.87;;;;;;;23.15;34.07;100982.11;1734665;81;21130;-85
2022/05/12 08:30:11;;;;;;;8.60;4.92;;;;;;;23.20;33.76;100981.58;1734763;82;21576;-83
2022/05/12 08:32:39;;;;;;;10.90;5.53;;;;;;;23.30;34.63;100990.86;1734777;82;21539;-83
2022/05/12 08:35:08;;;;;;;12.07;6.17;;;;;;;23.32;33.08;100982.70;1733668;81;21073;-83
2022/05/12 08:37:37;;;;;;;7.17;4.90;;;;;;;23.34;34.10;100989.16;1729542;82;21128;-84
2022/05/12 08:40:53;;;;;;;6.62;5.05;;;;;;;23.41;34.09;100994.84;1729367;80;21273;-83
2022/05/12 08:43:40;;;;;;;9.63;5.90;;;;;;;23.37;34.39;100991.42;1655163;84;21554;-83
2022/05/12 08:46:12;;;;;;;6.90;4.55;;;;;;;23.28;33.38;100982.77;1685915;83;21046;-84
2022/05/12 08:48:43;;;;;;;8.90;5.05;;;;;;;23.22;34.29;100984.35;1721633;82;21046;-85
2022/05/12 08:51:17;;;;;;;10.05;5.05;;;;;;;23.33;33.49;100979.55;1678093;83;21597;-83
2022/05/12 08:53:57;;;;;;;5.87;4.42;;;;;;;23.44;33.35;100981.18;1721371;83;21174;-89
2022/05/12 08:56:26;;;;;;;9.35;5.40;;;;;;;23.53;35.33;100969.89;1699788;81;21038;-84
2022/05/12 08:58:57;;;;;;;9.43;4.92;;;;;;;23.62;34.36;100967.93;1732344;81;21112;-83
2022/05/12 09:01:36;;;;;;;10.28;5.55;;;;;;;23.77;32.51;100965.99;1703141;83;21073;-83
2022/05/12 09:04:37;;;;;;;8.10;4.83;;;;;;;23.89;32.17;100964.94;1695915;82;21023;-83
2022/05/12 09:07:10;;;;;;;7.08;4.83;;;;;;;24.02;32.89;100960.73;1655464;84;21260;-83
2022/05/12 09:09:46;;;;;;;6.30;4.70;;;;;;;24.14;32.68;100967.65;1689757;83;21046;-83
2022/05/12 09:12:39;;;;;;;10.03;4.87;;;;;;;24.15;33.25;100966.14;1677931;83;21749;-83
2022/05/12 09:15:21;;;;;;;5.83;4.20;;;;;;;24.21;32.32;100959.19;1733609;81;21799;-88
2022/05/12 09:17:59;;;;;;;5.87;4.08;;;;;;;24.29;31.30;100959.02;1689804;83;21462;-83
2022/05/12 09:20:31;;;;;;;7.00;4.65;;;;;;;24.33;31.97;100959.45;1735869;82;21253;-84
2022/05/12 09:23:05;;;;;;;8.10;4.08;;;;;;;24.22;31.48;100957.69;1677554;83;21090;-83
2022/05/12 09:25:37;;;;;;;5.75;4.05;;;;;;;24.16;31.87;100962.96;1723779;81;21030;-83
2022/05/12 09:28:34;;;;;;;5.97;4.50;;;;;;;24.23;32.07;100955.83;1719786;82;21077;-86
2022/05/12 09:31:16;;;;;;;8.25;4.20;;;;;;;24.20;32.37;100952.22;1726316;82;21057;-85
2022/05/12 09:33:47;;;;;;;7.03;4.55;;;;;;;24.06;32.48;100949.51;1686813;83;21136;-83
2022/05/12 09:36:26;;;;;;;5.33;4.05;;;;;;;24.13;31.70;100955.36;1681588;84;21324;-83
2022/05/12 09:38:57;;;;;;;8.65;5.00;;;;;;;24.27;32.22;100953.09;1684387;85;21181;-82
2022/05/12 09:41:42;;;;;;;6.17;4.25;;;;;;;24.41;31.56;100952.13;1667838;83;21084;-83
2022/05/12 09:44:25;;;;;;;5.00;4.00;;;;;;;24.46;30.62;100940.89;1662747;83;21580;-87
2022/05/12 09:47:13;;;;;;;9.60;4.08;;;;;;;24.50;30.76;100945.30;1717545;82;21250;-83
2022/05/12 09:49:44;;;;;;;4.30;3.27;;;;;;;24.63;31.27;100955.98;1708283;82;21007;-82
2022/05/12 09:52:39;;;;;;;6.28;3.87;;;;;;;24.80;30.46;100938.33;1685278;83;21081;-83
2022/05/12 09:55:21;;;;;;;3.95;3.45;;;;;;;24.91;30.26;100930.25;1718799;82;20978;-82
2022/05/12 09:57:55;;;;;;;6.37;3.87;;;;;;;24.96;31.01;100930.45;1736335;81;21042;-83
2022/05/12 10:00:40;;;;;;;6.87;3.60;;;;;;;25.02;30.65;100917.68;1738704;82;21163;-84
2022/05/12 10:09:15;;;;;;;4.47;3.55;;;;;;;25.41;30.57;100920.55;1735296;81;21006;-82
2022/05/12 10:12:06;;;;;;;5.78;3.33;;;;;;;25.43;30.09;100920.67;1732937;81;21074;-82
2022/05/12 10:15:20;;;;;;;3.45;2.98;;;;;;;25.39;30.98;100914.10;1736589;81;21104;-88
2022/05/12 10:17:58;;;;;;;3.98;2.72;;;;;;;25.30;29.87;100909.97;1726639;82;21081;-82
2022/05/12 10:20:28;;;;;;;5.20;3.08;;;;;;;25.22;29.16;100908.36;1730411;81;21025;-83
2022/05/12 10:23:06;;;;;;;;;;;;;;;25.23;29.56;100907.83;1727115;82;21120;-83
2022/05/12 10:26:12;;;;;;;8.38;3.70;;;;;;;25.31;29.56;100900.96;1738443;81;20137;-83
2022/05/12 10:29:00;;;;;;;5.85;2.92;;;;;;;25.39;29.72;100901.30;1741316;80;21489;-83
2022/05/12 10:31:41;;;;;;;4.65;3.58;;;;;;;25.47;29.37;100888.56;1707888;83;21116;-83
2022/05/12 10:34:32;;;;;;;5.10;3.60;;;;;;;25.53;29.55;100890.08;1725723;81;21093;-84
2022/05/12 10:37:30;;;;;;;4.42;3.37;;;;;;;25.55;28.82;100898.70;1719488;82;22043;-83
2022/05/12 10:40:26;;;;;;;4.03;3.40;;;;;;;25.71;28.75;100890.78;1707323;82;21068;-84
2022/05/12 10:43:20;;;;;;;5.00;3.40;;;;;;;25.79;29.43;100886.03;1728005;82;21263;-84
2022/05/12 10:46:13;;;;;;;4.25;3.80;;;;;;;25.69;28.12;100878.97;1683611;83;21065;-83
2022/05/12 10:48:59;;;;;;;4.22;3.17;;;;;;;25.47;27.68;100884.56;1683069;84;21036;-83
2022/05/12 10:52:05;;;;;;;4.30;3.30;;;;;;;25.44;29.40;100874.31;1637705;85;21100;-83
2022/05/12 10:54:50;;;;;;;4.35;2.87;;;;;;;25.54;30.01;100870.40;1694125;83;21097;-83
2022/05/12 10:57:44;;;;;;;4.80;3.75;;;;;;;25.53;27.83;100873.59;1703067;82;21420;-83
2022/05/12 11:00:38;;;;;;;3.40;3.00;;;;;;;25.46;28.76;100868.27;1663610;83;21032;-82
2022/05/12 11:03:27;;;;;;;4.62;2.98;;;;;;;25.56;29.34;100865.69;1693703;82;21049;-82
2022/05/12 11:06:00;;;;;;;7.95;3.33;;;;;;;25.85;28.87;100862.20;1693592;82;21078;-82
2022/05/12 11:08:41;;;;;;;5.15;2.90;;;;;;;25.96;29.05;100857.55;1686234;83;21540;-84
2022/05/12 11:11:15;;;;;;;3.95;2.75;;;;;;;26.08;29.29;100846.53;1664823;84;21196;-83
2022/05/12 11:14:12;;;;;;;4.62;2.90;;;;;;;26.30;30.04;100851.04;1695608;82;21561;-83
2022/05/12 11:17:03;;;;;;;5.80;3.10;;;;;;;26.36;26.86;100838.69;1722138;82;21606;-83
2022/05/12 11:19:31;;;;;;;4.50;3.30;;;;;;;26.13;27.11;100833.89;1701713;83;21073;-82
2022/05/12 11:22:29;;;;;;;3.85;3.02;;;;;;;25.73;28.30;100838.88;1683440;84;21139;-83
2022/05/12 11:25:17;;;;;;;5.55;3.47;;;;;;;25.49;27.38;100831.88;1685342;84;21139;-84
2022/05/12 11:31:15;;;;;;;4.75;3.12;;;;;;;25.64;28.18;100829.47;1726996;82;21003;-83
2022/05/12 11:33:48;;;;;;;5.58;3.00;;;;;;;25.69;27.30;100824.31;1647326;84;21599;-86
2022/05/12 11:36:16;;;;;;;5.70;2.80;;;;;;;25.71;28.13;100822.27;1650558;85;21105;-82
2022/05/12 11:38:51;;;;;;;3.37;2.80;;;;;;;25.82;27.29;100810.95;1691458;83;21277;-82
2022/05/12 11:41:36;;;;;;;5.15;2.75;;;;;;;25.89;27.19;100812.75;1741233;81;21054;-82
2022/05/12 11:44:24;;;;;;;3.50;3.20;;;;;;;25.86;28.24;100806.00;1735399;82;20994;-82
2022/05/12 11:47:13;;;;;;;4.53;3.55;;;;;;;25.82;28.98;100806.95;1731805;82;21046;-82
2022/05/12 11:50:22;;;;;;;6.33;3.67;;;;;;;25.75;27.37;100805.33;1711761;82;21041;-82
2022/05/12 11:53:03;;;;;;;5.08;4.42;;;;;;;25.64;27.47;100808.14;1728362;82;21216;-81
2022/05/12 11:55:38;;;;;;;7.00;4.20;;;;;;;25.64;28.19;100797.47;1698586;83;21082;-82
2022/05/12 11:58:12;;;;;;;4.83;4.03;;;;;;;25.76;27.87;100794.44;1731427;82;21575;-83
2022/05/12 12:00:52;;;;;;;6.05;4.15;;;;;;;25.82;27.61;100791.44;1733665;82;20999;-82
2022/05/12 12:03:25;;;;;;;4.33;3.30;;;;;;;25.77;26.59;100798.73;1742201;80;21077;-82
2022/05/12 12:06:01;;;;;;;4.67;3.12;;;;;;;25.74;27.23;100800.52;1740023;81;21186;-84
2022/05/12 12:08:45;;;;;;;5.05;2.98;;;;;;;25.81;27.69;100787.97;1722762;82;21070;-83
2022/05/12 12:11:22;;;;;;;4.90;2.70;;;;;;;25.98;28.43;100782.14;1731155;81;21117;-82
2022/05/12 12:13:54;;;;;;;4.85;2.30;;;;;;;26.12;28.36;100778.88;1680539;83;21084;-83
2022/05/12 12:16:24;;;;;;;;;;;;;;;26.14;27.13;100781.67;1736054;81;22181;-83
2022/05/12 12:19:01;;;;;;;2.75;2.05;;;;;;;26.12;28.08;100782.39;1717139;82;21163;-86
2022/05/12 12:21:45;;;;;;;5.55;2.67;;;;;;;26.14;27.67;100779.00;1738336;81;21045;-82
2022/05/12 12:24:20;;;;;;;3.83;2.70;;;;;;;26.19;28.46;100773.02;1739114;81;21081;-82
2022/05/12 12:26:54;;;;;;;4.72;2.35;;;;;;;26.31;28.42;100777.14;1684769;83;21568;-82
2022/05/12 12:29:49;;;;;;;6.60;2.90;;;;;;;26.34;26.38;100768.69;1705295;83;21096;-87
2022/05/12 12:32:33;;;;;;;4.92;2.98;;;;;;;26.13;27.36;100762.69;1718813;81;21180;-84
2022/05/12 12:35:25;;;;;;;3.47;2.90;;;;;;;26.00;27.22;100762.72;1738467;81;21033;-82
2022/05/12 12:37:53;;;;;;;4.33;3.10;;;;;;;26.01;27.55;100749.69;1690577;83;21080;-82
2022/05/12 12:40:44;;;;;;;3.35;3.05;;;;;;;26.15;27.89;100746.45;1722772;82;21078;-82
2022/05/12 12:43:37;;;;;;;5.75;3.50;;;;;;;26.21;27.12;100746.91;1731775;82;21434;-82
2022/05/12 12:46:20;;;;;;;3.15;2.85;;;;;;;26.07;27.45;100751.52;1694473;83;21837;-85
2022/05/12 12:49:02;;;;;;;6.22;3.22;;;;;;;25.95;27.45;100741.21;1660431;85;21549;-82
2022/05/12 12:51:34;;;;;;;4.25;3.17;;;;;;;25.86;27.58;100742.49;1677527;84;21079;-82
2022/05/12 12:57:14;;;;;;;4.50;2.90;;;;;;;26.07;29.46;100732.01;1742886;81;20990;-82
2022/05/12 12:59:52;;;;;;;3.47;2.42;;;;;;;26.03;29.00;100732.95;1737725;81;21232;-83
2022/05/12 13:02:35;;;;;;;4.62;2.37;;;;;;;25.95;28.78;100730.05;1732791;81;21003;-82
2022/05/12 13:05:08;;;;;;;4.72;2.15;;;;;;;25.91;29.46;100728.02;1740250;80;21033;-87
2022/05/12 13:07:41;;;;;;;4.55;2.30;;;;;;;25.96;29.37;100725.52;1734296;80;21522;-83
2022/05/12 13:10:16;;;;;;;2.83;2.22;;;;;;;26.07;29.25;100718.16;1738465;81;21003;-83
2022/05/12 13:13:05;;;;;;;8.35;2.08;;;;;;;26.17;29.25;100720.88;1723334;82;21078;-85
2022/05/12 13:15:36;;;;;;;7.22;2.25;;;;;;;26.23;30.25;100724.84;1721563;82;21073;-82
2022/05/12 13:18:06;;;;;;;;;;;;;;;26.37;29.94;100722.89;1741411;81;21017;-82
2022/05/12 13:20:41;;;;;;;2.80;2.33;;;;;;;26.51;29.29;100717.43;1726452;82;20184;-82
2022/05/12 13:23:16;;;;;;;7.10;2.50;;;;;;;26.55;29.06;100707.96;1730491;82;21535;-83
2022/05/12 13:25:44;;;;;;;3.12;2.02;;;;;;;26.48;29.53;100700.00;1686515;83;21170;-82
2022/05/12 13:28:20;;;;;;;3.58;1.87;;;;;;;26.43;30.20;100706.00;1740845;81;21006;-84
2022/05/12 13:30:53;;;;;;;2.60;1.85;;;;;;;26.52;29.33;100695.04;1717525;83;21022;-82
2022/05/12 13:33:34;;;;;;;4.12;2.30;;;;;;;26.61;28.82;100689.72;1728676;82;21014;-83
2022/05/12 13:36:07;;;;;;;3.33;2.20;;;;;;;26.67;29.51;100684.02;1737199;82;21519;-81
2022/05/12 13:38:45;;;;;;;7.08;2.52;;;;;;;26.80;29.60;100680.43;1739216;81;21216;-85
2022/05/12 13:41:30;;;;;;;3.05;1.80;;;;;;;26.91;28.20;100678.34;1712758;82;21113;-81
2022/05/12 13:44:23;;;;;;;3.37;2.15;;;;;;;26.98;28.02;100679.61;1723668;81;21010;-82
2022/05/12 13:47:00;;;;;;;4.20;1.85;;;;;;;27.00;28.44;100677.01;1735129;81;21054;-84
2022/05/12 13:49:36;;;;;;;7.95;2.20;;;;;;;27.08;27.82;100674.03;1719040;82;21077;-82
2022/05/12 13:52:46;;;;;;;7.00;2.85;;;;;;;27.15;27.98;100663.78;1725489;81;21164;-83
2022/05/12 13:55:33;;;;;;;3.77;2.08;;;;;;;27.17;27.84;100652.35;1733907;81;21532;-81
2022/05/12 13:58:10;;;;;;;4.78;2.60;;;;;;;27.19;28.42;100660.44;1734511;82;21077;-82
2022/05/12 14:00:53;;;;;;;4.80;2.40;;;;;;;27.23;28.22;100656.28;1696719;83;21044;-83
2022/05/12 14:03:30;;;;;;;2.95;1.82;;;;;;;27.18;28.62;100662.00;1735422;82;21062;-83
2022/05/12 14:06:15;;;;;;;8.00;2.55;;;;;;;27.12;28.36;100665.58;1664412;85;21815;-82
2022/05/12 14:08:50;;;;;;;4.62;2.52;;;;;;;27.10;27.60;100651.63;1729291;81;21078;-82
2022/05/12 14:11:28;;;;;;;4.20;2.05;;;;;;;27.08;26.98;100655.86;1732116;81;21552;-82
2022/05/12 14:19:44;;;;;;;4.42;2.05;;;;;;;26.96;27.84;100650.42;1723083;82;21238;-86
2022/05/12 14:22:17;;;;;;;4.62;2.10;;;;;;;26.89;27.41;100647.85;1730655;82;21176;-84
2022/05/12 14:24:47;;;;;;;7.20;1.95;;;;;;;26.81;28.01;100646.81;1704105;83;21041;-85
2022/05/12 14:27:18;;;;;;;3.63;1.77;;;;;;;26.73;28.13;100645.74;1679882;83;21113;-85
2022/05/12 14:29:45;;;;;;;7.40;2.20;;;;;;;26.68;28.68;100641.59;1714241;82;21157;-90
2022/05/12 14:32:16;;;;;;;4.47;2.15;;;;;;;26.66;28.11;100641.00;1679587;83;21196;-88
2022/05/12 14:34:46;;;;;;;4.65;2.27;;;;;;;26.57;28.23;100627.11;1713928;82;21051;-84
2022/05/12 14:37:15;;;;;;;2.35;1.80;;;;;;;26.47;28.46;100635.63;1679670;83;21061;-84
2022/05/12 14:39:43;;;;;;;3.55;1.77;;;;;;;26.38;28.99;100627.11;1711301;82;21122;-83
2022/05/12 14:42:10;;;;;;;4.42;2.20;;;;;;;26.29;29.07;100627.89;1676557;83;21058;-84
2022/05/12 14:44:38;;;;;;;5.37;2.58;;;;;;;26.17;28.38;100620.31;1705579;82;21225;-84
2022/05/12 14:47:09;;;;;;;5.75;2.37;;;;;;;26.09;28.79;100617.92;1675975;83;21046;-84
2022/05/12 14:49:45;;;;;;;3.58;2.22;;;;;;;26.06;29.28;100623.16;1673862;84;21053;-85
2022/05/12 14:52:19;;;;;;;8.30;3.02;;;;;;;26.03;29.21;100611.58;1707489;83;21607;-86
2022/05/12 14:54:49;;;;;;;2.60;2.30;;;;;;;25.97;29.90;100608.45;1704205;83;21505;-85
2022/05/12 14:57:19;;;;;;;6.50;2.52;;;;;;;25.89;30.02;100604.19;1711770;82;21125;-85
2022/05/12 14:59:46;;;;;;;2.80;2.20;;;;;;;25.80;28.64;100594.33;1680591;83;21563;-85
2022/05/12 15:02:22;;;;;;;2.52;2.25;;;;;;;25.71;28.86;100592.95;1720972;81;21074;-85
2022/05/12 15:05:26;;;;;;;4.17;2.05;;;;;;;25.67;30.02;100595.23;1728463;82;21544;-85
2022/05/12 15:07:54;;;;;;;8.20;2.10;;;;;;;25.68;29.44;100594.70;1733280;82;21137;-88
2022/05/12 15:10:24;;;;;;;3.98;2.12;;;;;;;25.66;29.88;100590.94;1728370;82;21057;-84
2022/05/12 15:12:51;;;;;;;9.38;2.65;;;;;;;25.66;30.70;100588.27;1721569;81;21525;-84
2022/05/12 15:15:19;;;;;;;3.65;1.95;;;;;;;25.66;30.83;100584.27;1729820;82;21061;-84
2022/05/12 15:17:49;;;;;;;6.67;2.00;;;;;;;25.63;30.51;100586.05;1735863;81;21076;-84
2022/05/12 15:20:20;;;;;;;5.65;2.27;;;;;;;25.62;30.65;100581.75;1697023;82;21606;-85
2022/05/12 15:22:49;;;;;;;5.03;2.10;;;;;;;25.62;30.69;100579.58;1673587;83;21314;-86
2022/05/12 15:25:19;;;;;;;7.92;2.33;;;;;;;25.63;30.79;100579.89;1668099;84;21102;-84
2022/05/12 15:27:49;;;;;;;4.80;2.27;;;;;;;25.60;31.11;100573.67;1708148;81;21014;-83
2022/05/12 15:30:21;;;;;;;6.75;2.20;;;;;;;25.55;30.73;100570.82;1680124;85;21030;-83